createdAt,value
2022-08-16T00:01:24.458Z,6.10
2022-08-16T00:03:52.479Z,6.18
2022-08-16T00:06:19.168Z,5.47
2022-08-16T00:08:46.148Z,5.80
2022-08-16T00:11:15.984Z,5.57
2022-08-16T00:13:54.000Z,5.95
2022-08-16T00:17:00.776Z,6.28
2022-08-16T00:19:22.482Z,5.95
2022-08-16T00:21:52.040Z,6.00
2022-08-16T00:24:31.110Z,6.65
2022-08-16T00:27:01.049Z,6.45
2022-08-16T00:29:29.675Z,6.18
2022-08-16T00:32:01.073Z,6.07
2022-08-16T00:34:44.029Z,6.45
2022-08-16T00:37:20.790Z,5.25
2022-08-16T00:39:58.020Z,5.57
2022-08-16T00:42:30.370Z,4.75
2022-08-16T00:45:28.440Z,5.53
2022-08-16T00:47:55.933Z,4.95
2022-08-16T00:50:36.057Z,5.63
2022-08-16T00:53:06.161Z,5.30
2022-08-16T00:55:38.100Z,4.53
2022-08-16T00:58:13.236Z,5.45
2022-08-16T01:00:44.468Z,5.50
2022-08-16T01:03:30.280Z,5.28
2022-08-16T01:05:59.042Z,5.32
2022-08-16T01:08:36.031Z,5.18
2022-08-16T01:11:05.361Z,5.32
2022-08-16T01:13:36.593Z,5.20
2022-08-16T01:16:10.246Z,4.95
2022-08-16T01:18:44.345Z,4.63
2022-08-16T01:21:36.161Z,5.15
2022-08-16T01:24:51.526Z,5.30
2022-08-16T01:27:48.560Z,5.22
2022-08-16T01:30:26.068Z,4.80
2022-08-16T01:33:02.765Z,5.40
2022-08-16T01:35:56.158Z,4.60
2022-08-16T01:38:25.690Z,5.22
2022-08-16T01:41:02.034Z,5.80
2022-08-16T01:43:31.275Z,5.50
2022-08-16T01:46:29.943Z,5.15
2022-08-16T01:48:48.813Z,5.25
2022-08-16T01:51:18.686Z,5.68
2022-08-16T01:53:55.196Z,5.38
2022-08-16T01:56:24.608Z,5.18
2022-08-16T01:58:54.997Z,5.22
2022-08-16T02:01:22.552Z,5.07
2022-08-16T02:03:51.908Z,5.22
2022-08-16T02:06:34.640Z,4.72
2022-08-16T02:09:07.277Z,5.25
2022-08-16T02:11:48.101Z,4.90
2022-08-16T02:14:21.496Z,4.30
2022-08-16T02:16:49.431Z,5.53
2022-08-16T02:19:18.614Z,5.03
2022-08-16T02:22:07.795Z,5.32
2022-08-16T02:24:41.269Z,4.80
2022-08-16T02:27:10.848Z,4.43
2022-08-16T02:29:38.348Z,5.38
2022-08-16T02:32:50.819Z,5.00
2022-08-16T02:34:57.278Z,5.15
2022-08-16T02:37:24.139Z,4.90
2022-08-16T02:40:16.307Z,4.78
2022-08-16T02:42:50.054Z,5.13
2022-08-16T02:45:20.191Z,4.65
2022-08-16T02:48:00.577Z,4.90
2022-08-16T02:50:54.088Z,5.10
2022-08-16T02:53:23.664Z,4.20
2022-08-16T02:55:51.358Z,5.00
2022-08-16T02:58:19.877Z,5.10
2022-08-16T03:00:53.919Z,5.28
2022-08-16T03:03:23.131Z,5.60
2022-08-16T03:05:52.509Z,5.53
2022-08-16T03:08:51.730Z,5.60
2022-08-16T03:11:16.977Z,5.35
2022-08-16T03:13:56.438Z,4.97
2022-08-16T03:16:38.789Z,4.70
2022-08-16T03:19:09.613Z,4.93
2022-08-16T03:21:38.606Z,5.10
2022-08-16T03:24:27.687Z,5.95
2022-08-16T03:26:58.160Z,5.65
2022-08-16T03:29:31.555Z,5.57
2022-08-16T03:32:01.389Z,5.05
2022-08-16T03:34:29.640Z,5.43
2022-08-16T03:36:57.525Z,5.88
2022-08-16T03:39:24.757Z,5.50
2022-08-16T03:41:59.972Z,5.30
2022-08-16T03:44:40.657Z,5.00
2022-08-16T03:47:12.372Z,5.35
2022-08-16T03:49:39.473Z,5.68
2022-08-16T03:52:07.269Z,4.97
2022-08-16T03:54:35.904Z,5.10
2022-08-16T03:57:04.941Z,6.00
2022-08-16T03:59:32.463Z,5.53
2022-08-16T04:02:00.939Z,5.85
2022-08-16T04:04:33.463Z,5.53
2022-08-16T04:07:02.780Z,5.90
2022-08-16T04:09:35.570Z,5.97
2022-08-16T04:12:11.051Z,6.00
2022-08-16T04:14:46.903Z,6.15
2022-08-16T04:17:17.136Z,5.63
2022-08-16T04:19:47.442Z,5.40
2022-08-16T04:22:19.612Z,5.50
2022-08-16T04:24:54.256Z,5.93
2022-08-16T04:27:24.399Z,5.95
2022-08-16T04:29:55.366Z,5.47
2022-08-16T04:32:30.036Z,5.80
2022-08-16T04:34:56.746Z,5.85
2022-08-16T04:37:23.370Z,5.50
2022-08-16T04:39:55.297Z,5.53
2022-08-16T04:42:26.308Z,5.03
2022-08-16T04:44:57.701Z,6.07
2022-08-16T04:47:35.545Z,5.60
2022-08-16T04:50:22.515Z,6.00
2022-08-16T04:52:57.935Z,6.13
2022-08-16T04:55:37.819Z,6.30
2022-08-16T04:58:43.959Z,5.53
2022-08-16T05:00:53.592Z,6.15
2022-08-16T05:03:21.452Z,6.18
2022-08-16T05:05:55.908Z,5.55
2022-08-16T05:08:30.799Z,6.45
2022-08-16T05:11:05.519Z,5.55
2022-08-16T05:13:40.069Z,5.90
2022-08-16T05:16:20.226Z,6.18
2022-08-16T05:18:50.358Z,5.35
2022-08-16T05:21:17.100Z,5.60
2022-08-16T05:23:55.848Z,5.22
2022-08-16T05:26:27.869Z,5.22
2022-08-16T05:28:56.060Z,5.45
2022-08-16T05:31:29.191Z,5.50
2022-08-16T05:34:00.846Z,5.30
2022-08-16T05:36:33.921Z,4.88
2022-08-16T05:39:08.856Z,4.93
2022-08-16T05:41:45.373Z,4.90
2022-08-16T05:44:24.051Z,4.55
2022-08-16T05:46:57.044Z,4.57
2022-08-16T05:49:26.186Z,4.68
2022-08-16T05:52:11.456Z,4.28
2022-08-16T05:54:46.666Z,4.20
2022-08-16T05:57:16.812Z,4.53
2022-08-16T05:59:43.739Z,4.57
2022-08-16T06:02:10.377Z,4.22
2022-08-16T06:04:37.965Z,3.72
2022-08-16T06:07:24.262Z,4.45
2022-08-16T06:09:52.739Z,4.15
2022-08-16T06:12:26.804Z,4.57
2022-08-16T06:14:59.073Z,3.97
2022-08-16T06:17:42.857Z,4.43
2022-08-16T06:20:18.410Z,4.05
2022-08-16T06:22:59.047Z,4.18
2022-08-16T06:25:35.817Z,3.63
2022-08-16T06:28:08.777Z,3.92
2022-08-16T06:30:43.535Z,4.40
2022-08-16T06:33:13.034Z,4.30
2022-08-16T06:35:47.251Z,4.50
2022-08-16T06:38:31.922Z,4.45
2022-08-16T06:41:01.104Z,4.90
2022-08-16T06:43:29.177Z,4.85
2022-08-16T06:45:56.201Z,4.93
2022-08-16T06:48:32.445Z,4.90
2022-08-16T06:51:02.250Z,4.95
2022-08-16T06:53:29.713Z,4.90
2022-08-16T06:55:58.725Z,4.80
2022-08-16T06:58:31.635Z,4.75
2022-08-16T07:01:00.119Z,4.60
2022-08-16T07:03:32.591Z,4.82
2022-08-16T07:06:00.089Z,4.60
2022-08-16T07:08:28.033Z,4.70
2022-08-16T07:10:56.034Z,4.18
2022-08-16T07:13:57.958Z,4.47
2022-08-16T07:16:15.312Z,4.88
2022-08-16T07:18:58.105Z,4.90
2022-08-16T07:21:28.208Z,4.65
2022-08-16T07:24:29.549Z,4.13
2022-08-16T07:26:56.933Z,4.88
2022-08-16T07:29:23.759Z,4.60
2022-08-16T07:31:50.473Z,4.00
2022-08-16T07:34:20.869Z,4.40
2022-08-16T07:37:07.632Z,4.60
2022-08-16T07:39:36.079Z,4.28
2022-08-16T07:42:20.068Z,4.30
2022-08-16T07:44:52.668Z,4.35
2022-08-16T07:47:19.549Z,4.00
2022-08-16T07:49:57.926Z,4.22
2022-08-16T07:52:29.762Z,4.20
2022-08-16T07:54:57.706Z,4.20
2022-08-16T07:57:25.288Z,3.92
2022-08-16T07:59:53.533Z,3.78
2022-08-16T08:02:27.419Z,4.32
2022-08-16T08:04:55.934Z,3.83
2022-08-16T08:07:27.490Z,3.40
2022-08-16T08:09:56.187Z,4.32
2022-08-16T08:12:32.383Z,3.88
2022-08-16T08:15:10.330Z,4.10
2022-08-16T08:17:43.123Z,3.83
2022-08-16T08:20:20.781Z,3.60
2022-08-16T08:23:00.983Z,4.07
2022-08-16T08:25:53.488Z,3.75
2022-08-16T08:28:18.476Z,3.90
2022-08-16T08:30:52.272Z,3.75
2022-08-16T08:33:28.608Z,4.43
2022-08-16T08:36:01.101Z,3.47
2022-08-16T08:38:45.580Z,3.53
2022-08-16T08:41:18.343Z,3.85
2022-08-16T08:43:46.247Z,4.03
2022-08-16T08:46:18.195Z,4.05
2022-08-16T08:49:00.150Z,3.78
2022-08-16T08:51:35.492Z,4.10
2022-08-16T08:54:06.821Z,3.72
2022-08-16T08:56:37.826Z,4.33
2022-08-16T08:59:19.851Z,4.13
2022-08-16T09:01:57.280Z,3.75
2022-08-16T09:04:26.925Z,3.30
2022-08-16T09:06:54.695Z,3.35
2022-08-16T09:09:23.172Z,3.40
2022-08-16T09:12:03.914Z,3.17
2022-08-16T09:14:34.640Z,3.10
2022-08-16T09:17:14.060Z,2.95
2022-08-16T09:19:52.640Z,3.20
2022-08-16T09:22:23.151Z,3.55
2022-08-16T09:24:53.474Z,3.53
2022-08-16T09:27:25.321Z,3.58
2022-08-16T09:30:00.281Z,3.20
2022-08-16T09:32:30.574Z,2.97
2022-08-16T09:34:59.548Z,3.22
2022-08-16T09:37:29.206Z,2.95
2022-08-16T09:40:00.952Z,3.13
2022-08-16T09:42:28.941Z,2.63
2022-08-16T09:45:11.068Z,3.53
2022-08-16T09:47:56.591Z,3.22
2022-08-16T09:50:33.221Z,3.00
2022-08-16T09:53:07.579Z,2.50
2022-08-16T09:55:49.004Z,2.70
2022-08-16T09:58:41.933Z,2.97
2022-08-16T10:01:03.359Z,2.40
2022-08-16T10:03:30.519Z,2.58
2022-08-16T10:05:57.447Z,3.30
2022-08-16T10:08:27.057Z,2.40
2022-08-16T10:11:12.685Z,3.15
2022-08-16T10:13:41.619Z,3.03
2022-08-16T10:16:09.224Z,2.97
2022-08-16T10:19:00.247Z,3.38
2022-08-16T10:21:24.044Z,2.90
2022-08-16T10:23:54.881Z,2.58
2022-08-16T10:27:18.381Z,2.42
2022-08-16T10:29:11.944Z,2.97
2022-08-16T10:31:53.524Z,2.70
2022-08-16T10:34:31.241Z,2.90
2022-08-16T10:37:02.101Z,2.50
2022-08-16T10:39:40.506Z,3.08
2022-08-16T10:42:09.932Z,2.45
2022-08-16T10:44:36.859Z,3.13
2022-08-16T10:47:04.227Z,3.05
2022-08-16T10:49:32.368Z,2.60
2022-08-16T10:52:01.131Z,2.67
2022-08-16T10:54:31.128Z,2.85
2022-08-16T10:57:04.151Z,2.35
2022-08-16T10:59:47.031Z,2.90
2022-08-16T11:03:00.805Z,3.13
2022-08-16T11:05:13.953Z,2.83
2022-08-16T11:07:51.497Z,2.58
2022-08-16T11:19:06.140Z,2.50
2022-08-16T11:22:23.146Z,2.40
2022-08-16T11:24:41.558Z,2.30
2022-08-16T11:27:24.062Z,2.45
2022-08-16T11:29:59.332Z,2.47
2022-08-16T11:32:32.397Z,2.38
2022-08-16T11:35:13.982Z,2.67
2022-08-16T11:40:44.715Z,2.60
2022-08-16T11:43:16.477Z,2.65
2022-08-16T11:45:44.262Z,2.28
2022-08-16T11:48:27.015Z,2.90
2022-08-16T11:50:54.890Z,3.00
2022-08-16T11:53:22.096Z,2.80
2022-08-16T11:55:50.650Z,2.50
2022-08-16T11:58:26.122Z,2.75
2022-08-16T12:00:57.571Z,2.55
2022-08-16T12:03:31.625Z,2.95
2022-08-16T12:06:10.842Z,2.40
2022-08-16T12:08:40.161Z,2.83
2022-08-16T12:11:08.213Z,2.53
2022-08-16T12:13:36.375Z,2.33
2022-08-16T12:16:04.586Z,2.40
2022-08-16T12:18:31.665Z,2.40
2022-08-16T12:20:58.468Z,2.80
2022-08-16T12:23:26.954Z,2.35
2022-08-16T12:25:53.900Z,2.40
2022-08-16T12:28:36.659Z,2.70
2022-08-16T12:31:07.713Z,2.60
2022-08-16T12:33:42.800Z,2.40
2022-08-16T12:36:13.216Z,2.60
2022-08-16T12:38:48.105Z,2.50
2022-08-16T12:41:24.716Z,2.75
2022-08-16T12:43:52.672Z,2.55
2022-08-16T12:46:25.207Z,2.70
2022-08-16T12:48:58.148Z,2.13
2022-08-16T12:51:58.695Z,2.42
2022-08-16T12:54:23.599Z,2.28
2022-08-16T12:56:50.768Z,2.30
2022-08-16T12:59:20.329Z,2.78
2022-08-16T13:01:47.828Z,2.72
2022-08-16T13:04:20.500Z,2.20
2022-08-16T13:06:50.178Z,2.50
2022-08-16T13:12:16.063Z,2.40
2022-08-16T13:14:44.152Z,2.63
2022-08-16T13:17:18.775Z,2.25
2022-08-16T13:22:36.612Z,2.38
2022-08-16T13:25:06.475Z,2.67
2022-08-16T13:27:59.108Z,1.92
2022-08-16T13:30:36.079Z,2.55
2022-08-16T13:33:10.409Z,2.22
2022-08-16T13:35:38.452Z,2.28
2022-08-16T13:38:10.362Z,2.60
2022-08-16T13:40:48.785Z,2.15
2022-08-16T13:43:18.154Z,2.83
2022-08-16T13:45:45.232Z,2.30
2022-08-16T13:48:21.805Z,2.72
2022-08-16T13:50:52.971Z,2.75
2022-08-16T13:53:24.401Z,2.60
2022-08-16T13:55:58.524Z,2.53
2022-08-16T13:58:36.384Z,2.78
2022-08-16T14:01:09.961Z,2.83
2022-08-16T14:03:37.490Z,2.55
2022-08-16T14:06:04.199Z,2.42
2022-08-16T14:08:30.870Z,2.38
2022-08-16T14:10:57.630Z,2.42
2022-08-16T14:13:24.436Z,2.17
2022-08-16T14:15:51.669Z,2.42
2022-08-16T14:18:20.379Z,2.65
2022-08-16T14:20:48.519Z,2.50
2022-08-16T14:23:15.910Z,2.80
2022-08-16T14:25:42.858Z,2.88
2022-08-16T14:28:20.488Z,3.05
2022-08-16T14:30:50.495Z,2.85
2022-08-16T14:33:18.812Z,3.60
2022-08-16T14:35:49.196Z,2.67
2022-08-16T14:38:19.235Z,2.75
2022-08-16T14:40:55.452Z,2.50
2022-08-16T14:43:24.891Z,2.33
2022-08-16T14:45:54.836Z,2.70
2022-08-16T14:48:25.836Z,2.83
2022-08-16T14:50:54.774Z,2.47
2022-08-16T14:53:23.798Z,2.53
2022-08-16T14:55:50.792Z,2.63
2022-08-16T14:58:19.652Z,3.28
2022-08-16T15:00:47.819Z,2.90
2022-08-16T15:03:19.320Z,2.50
2022-08-16T15:05:48.483Z,2.58
2022-08-16T15:08:20.298Z,2.55
2022-08-16T15:10:47.589Z,2.50
2022-08-16T15:13:14.910Z,2.50
2022-08-16T15:15:43.410Z,2.30
2022-08-16T15:18:12.252Z,2.45
2022-08-16T15:20:41.185Z,1.63
2022-08-16T15:23:09.229Z,2.10
2022-08-16T15:25:57.680Z,2.35
2022-08-16T15:28:32.280Z,2.70
2022-08-16T15:31:03.609Z,2.35
2022-08-16T15:33:32.982Z,3.45
2022-08-16T15:36:00.555Z,2.42
2022-08-16T15:38:58.146Z,2.80
2022-08-16T15:41:43.688Z,2.72
2022-08-16T15:44:22.410Z,2.53
2022-08-16T15:46:56.941Z,2.33
2022-08-16T15:49:37.434Z,2.55
2022-08-16T15:52:18.148Z,2.92
2022-08-16T15:54:53.486Z,3.38
2022-08-16T15:57:27.024Z,2.60
2022-08-16T15:59:56.045Z,3.00
2022-08-16T16:02:30.828Z,3.22
2022-08-16T16:05:00.924Z,2.70
2022-08-16T16:07:29.936Z,2.63
2022-08-16T16:09:58.764Z,2.63
2022-08-16T16:12:56.310Z,2.70
2022-08-16T16:15:16.754Z,2.75
2022-08-16T16:17:44.038Z,2.50
2022-08-16T16:20:18.719Z,3.10
2022-08-16T16:22:46.320Z,2.40
2022-08-16T16:25:15.971Z,3.03
2022-08-16T16:27:44.007Z,2.88
2022-08-16T16:30:33.513Z,3.00
2022-08-16T16:33:01.047Z,2.75
2022-08-16T16:35:30.731Z,3.40
2022-08-16T16:38:00.190Z,2.65
2022-08-16T16:40:32.138Z,2.80
2022-08-16T16:43:00.352Z,2.75
2022-08-16T16:45:33.515Z,2.90
2022-08-16T16:48:12.039Z,3.80
2022-08-16T16:50:45.278Z,2.63
2022-08-16T16:53:17.134Z,2.97
2022-08-16T16:55:52.261Z,2.67
2022-08-16T16:58:43.491Z,3.00
2022-08-16T17:01:20.945Z,2.73
2022-08-16T17:04:19.359Z,2.50
2022-08-16T17:06:53.404Z,2.95
2022-08-16T17:09:23.769Z,3.05
2022-08-16T17:11:55.616Z,2.95
2022-08-16T17:17:10.041Z,3.05
2022-08-16T17:19:41.021Z,3.30
2022-08-16T17:22:32.526Z,3.63
2022-08-16T17:25:00.350Z,3.30
2022-08-16T17:27:33.761Z,3.10
2022-08-16T17:30:15.995Z,2.90
2022-08-16T17:32:50.702Z,3.22
2022-08-16T17:35:36.600Z,2.92
2022-08-16T17:38:07.504Z,3.38
2022-08-16T17:40:57.719Z,3.08
2022-08-16T17:43:32.349Z,3.70
2022-08-16T17:45:59.909Z,2.80
2022-08-16T17:48:27.455Z,3.08
2022-08-16T17:50:54.533Z,3.38
2022-08-16T17:53:22.287Z,3.60
2022-08-16T17:55:50.478Z,3.75
2022-08-16T17:58:22.242Z,3.97
2022-08-16T18:00:53.068Z,3.55
2022-08-16T18:04:08.957Z,3.38
2022-08-16T18:06:15.798Z,3.67
2022-08-16T18:08:42.737Z,3.30
2022-08-16T18:11:10.396Z,3.60
2022-08-16T18:13:42.909Z,3.13
2022-08-16T18:16:10.380Z,3.05
2022-08-16T18:18:37.282Z,3.47
2022-08-16T18:21:22.925Z,3.95
2022-08-16T18:23:49.527Z,3.88
2022-08-16T18:26:16.140Z,3.58
2022-08-16T18:28:42.906Z,3.67
2022-08-16T18:31:09.650Z,3.70
2022-08-16T18:33:43.352Z,3.83
2022-08-16T18:36:20.535Z,4.35
2022-08-16T18:38:48.780Z,3.30
2022-08-16T18:41:15.964Z,3.65
2022-08-16T18:44:23.615Z,3.13
2022-08-16T18:46:29.506Z,3.10
2022-08-16T18:48:56.130Z,2.90
2022-08-16T18:51:25.276Z,3.40
2022-08-16T18:53:52.444Z,3.20
2022-08-16T18:56:19.678Z,3.97
2022-08-16T18:58:46.410Z,4.35
2022-08-16T19:01:13.275Z,4.97
2022-08-16T19:03:40.009Z,5.00
2022-08-16T19:06:11.964Z,4.15
2022-08-16T19:08:42.518Z,4.15
2022-08-16T19:11:20.000Z,4.60
2022-08-16T19:13:46.725Z,4.05
2022-08-16T19:16:14.556Z,3.85
2022-08-16T19:18:41.475Z,4.90
2022-08-16T19:21:14.524Z,5.85
2022-08-16T19:23:42.657Z,5.10
2022-08-16T19:26:23.402Z,4.93
2022-08-16T19:28:58.676Z,4.30
2022-08-16T19:31:32.750Z,4.40
2022-08-16T19:34:00.784Z,4.57
2022-08-16T19:36:35.171Z,4.45
2022-08-16T19:39:08.839Z,4.40
2022-08-16T19:41:39.083Z,4.00
2022-08-16T19:44:06.738Z,3.60
2022-08-16T19:46:34.094Z,3.80
2022-08-16T19:49:00.842Z,3.22
2022-08-16T19:51:28.272Z,3.45
2022-08-16T19:53:55.016Z,3.55
2022-08-16T19:56:23.921Z,4.05
2022-08-16T19:59:17.461Z,3.97
2022-08-16T20:01:42.048Z,3.97
2022-08-16T20:04:12.569Z,4.15
2022-08-16T20:06:39.726Z,4.18
2022-08-16T20:09:06.911Z,3.60
2022-08-16T20:11:34.857Z,3.67
2022-08-16T20:14:02.353Z,3.63
2022-08-16T20:16:29.533Z,3.72
2022-08-16T20:18:59.545Z,3.97
2022-08-16T20:21:26.290Z,3.28
2022-08-16T20:23:58.305Z,4.40
2022-08-16T20:26:36.841Z,3.42
2022-08-16T20:29:03.496Z,3.67
2022-08-16T20:31:30.217Z,3.63
2022-08-16T20:33:56.928Z,3.42
2022-08-16T20:36:24.539Z,3.83
2022-08-16T20:38:51.935Z,4.00
2022-08-16T20:41:19.116Z,3.90
2022-08-16T20:43:47.604Z,3.17
2022-08-16T20:46:14.677Z,3.38
2022-08-16T20:48:41.959Z,3.47
2022-08-16T20:51:10.752Z,3.47
2022-08-16T20:53:42.391Z,3.60
2022-08-16T20:56:10.472Z,3.88
2022-08-16T20:58:37.652Z,3.33
2022-08-16T21:01:05.506Z,3.38
2022-08-16T21:03:32.432Z,3.47
2022-08-16T21:06:02.192Z,3.42
2022-08-16T21:08:52.546Z,3.90
2022-08-16T21:11:16.399Z,4.20
2022-08-16T21:13:43.241Z,4.15
2022-08-16T21:16:09.984Z,3.95
2022-08-16T21:18:36.577Z,4.03
2022-08-16T21:21:03.351Z,3.65
2022-08-16T21:23:30.925Z,3.88
2022-08-16T21:25:59.706Z,4.35
2022-08-16T21:28:38.796Z,3.75
2022-08-16T21:31:10.875Z,4.18
2022-08-16T21:33:37.709Z,5.13
2022-08-16T21:36:04.575Z,4.78
2022-08-16T21:38:31.523Z,5.20
2022-08-16T21:41:00.209Z,4.30
2022-08-16T21:43:31.890Z,4.90
2022-08-16T21:46:00.151Z,4.47
2022-08-16T21:48:34.916Z,3.95
2022-08-16T21:51:08.377Z,4.38
2022-08-16T21:53:35.901Z,4.70
2022-08-16T21:56:03.942Z,4.70
2022-08-16T21:58:30.910Z,4.60
2022-08-16T22:01:07.229Z,4.30
2022-08-16T22:03:33.936Z,4.40
2022-08-16T22:06:13.225Z,4.30
2022-08-16T22:08:50.376Z,4.55
2022-08-16T22:11:22.926Z,4.40
2022-08-16T22:13:57.502Z,4.15
2022-08-16T22:16:29.829Z,4.22
2022-08-16T22:18:56.488Z,4.28
2022-08-16T22:21:23.438Z,4.40
2022-08-16T22:23:56.605Z,4.32
2022-08-16T22:26:33.813Z,4.40
2022-08-16T22:29:10.755Z,4.28
2022-08-16T22:31:39.548Z,4.40
2022-08-16T22:34:06.674Z,4.25
2022-08-16T22:36:34.317Z,4.97
2022-08-16T22:39:03.715Z,4.53
2022-08-16T22:41:32.762Z,4.78
2022-08-16T22:44:01.381Z,4.90
2022-08-16T22:46:28.500Z,5.72
2022-08-16T22:48:55.151Z,5.28
2022-08-16T22:51:23.909Z,4.93
2022-08-16T22:53:52.778Z,4.68
2022-08-16T22:56:20.924Z,4.55
2022-08-16T22:58:47.963Z,5.85
2022-08-16T23:01:17.183Z,5.18
2022-08-16T23:03:44.363Z,4.97
2022-08-16T23:06:12.510Z,5.20
2022-08-16T23:08:41.403Z,5.45
2022-08-16T23:11:10.839Z,5.50
2022-08-16T23:13:52.718Z,5.38
2022-08-16T23:16:33.796Z,5.05
2022-08-16T23:19:07.176Z,4.82
2022-08-16T23:21:37.136Z,4.88
2022-08-16T23:24:05.771Z,4.35
2022-08-16T23:26:36.376Z,4.70
2022-08-16T23:29:22.119Z,5.07
2022-08-16T23:31:53.878Z,4.95
2022-08-16T23:34:21.802Z,4.40
2022-08-16T23:36:48.622Z,4.60
2022-08-16T23:39:15.312Z,5.15
2022-08-16T23:41:42.146Z,4.15
2022-08-16T23:44:56.409Z,4.88
2022-08-16T23:46:55.788Z,4.68
2022-08-16T23:49:58.570Z,4.63
2022-08-16T23:52:09.929Z,4.05
2022-08-16T23:54:36.733Z,3.72
2022-08-16T23:57:03.896Z,4.00
2022-08-16T23:59:38.049Z,4.30
